Time;durP1;ratioP1;P1;durP2;ratioP2;P2;SDS_P1;SDS_P2;PMS_P1;PMS_P2;Temp;Humidity;BMP_temperature;BMP_pressure;BME280_temperature;BME280_humidity;BME280_pressure;Samples;Min_cycle;Max_cycle;Signal;HPM_P1;HPM_P2
2023/03/22 00:01:55;;;;;;;7.35;6.57;;;;;;;;;;6279383;22;20455;-76
2023/03/22 00:04:21;;;;;;;9.70;7.30;;;;;;;;;;6307111;22;20034;-75
2023/03/22 00:06:47;;;;;;;8.93;7.18;;;;;;;;;;6277421;22;20438;-75
2023/03/22 00:09:13;;;;;;;8.50;7.70;;;;;;;;;;6275526;22;20042;-75
2023/03/22 00:11:39;;;;;;;9.88;7.65;;;;;;;;;;6302278;22;20029;-75
2023/03/22 00:14:06;;;;;;;8.45;6.93;;;;;;;;;;6301469;22;20645;-74
2023/03/22 00:16:32;;;;;;;7.88;7.10;;;;;;;;;;6274129;22;20011;-74
2023/03/22 00:18:58;;;;;;;10.70;8.05;;;;;;;;;;6301950;22;20087;-74
2023/03/22 00:21:24;;;;;;;8.45;7.30;;;;;;;;;;6302009;22;20035;-74
2023/03/22 00:23:50;;;;;;;8.35;7.28;;;;;;;;;;6248654;22;20069;-75
2023/03/22 00:26:16;;;;;;;8.85;7.60;;;;;;;;;;6301766;22;20061;-74
2023/03/22 00:28:42;;;;;;;10.68;7.65;;;;;;;;;;6301909;22;20011;-74
2023/03/22 00:31:09;;;;;;;8.25;7.43;;;;;;;;;;6301725;22;20478;-74
2023/03/22 00:33:35;;;;;;;8.07;7.28;;;;;;;;;;6302144;22;20508;-74
2023/03/22 00:36:02;;;;;;;10.13;7.80;;;;;;;;;;6274378;22;20038;-76
2023/03/22 00:38:35;;;;;;;9.70;8.40;;;;;;;;;;6275082;22;20034;-74
2023/03/22 00:41:08;;;;;;;9.73;7.90;;;;;;;;;;6301366;22;20011;-74
2023/03/22 00:43:35;;;;;;;11.00;8.60;;;;;;;;;;6274890;22;20098;-76
2023/03/22 00:46:02;;;;;;;9.60;8.25;;;;;;;;;;6301388;22;20023;-74
2023/03/22 00:48:29;;;;;;;8.98;8.05;;;;;;;;;;6301425;22;20007;-75
2023/03/22 00:50:55;;;;;;;9.48;7.47;;;;;;;;;;6301086;22;20015;-75
2023/03/22 00:53:21;;;;;;;9.73;6.78;;;;;;;;;;6302066;22;20015;-75
2023/03/22 00:55:47;;;;;;;8.63;6.85;;;;;;;;;;6302050;22;20022;-74
2023/03/22 00:58:14;;;;;;;9.88;8.40;;;;;;;;;;6275101;22;20063;-75
2023/03/22 01:00:40;;;;;;;8.93;6.60;;;;;;;;;;6274657;22;20037;-74
2023/03/22 01:03:06;;;;;;;8.48;7.60;;;;;;;;;;6274651;22;20531;-75
2023/03/22 01:05:33;;;;;;;9.90;7.70;;;;;;;;;;6274834;22;20023;-75
2023/03/22 01:08:05;;;;;;;7.70;6.13;;;;;;;;;;6274103;22;20355;-75
2023/03/22 01:10:31;;;;;;;9.80;7.32;;;;;;;;;;6301512;22;20015;-75
2023/03/22 01:12:57;;;;;;;7.55;6.55;;;;;;;;;;6300002;22;20011;-75
2023/03/22 01:15:23;;;;;;;7.97;6.68;;;;;;;;;;6247313;22;20015;-75
2023/03/22 01:17:51;;;;;;;9.10;7.28;;;;;;;;;;6273509;22;20007;-75
2023/03/22 01:20:17;;;;;;;9.23;7.43;;;;;;;;;;6273520;22;20011;-75
2023/03/22 01:22:43;;;;;;;7.15;5.93;;;;;;;;;;6248058;22;20015;-75
2023/03/22 01:25:10;;;;;;;14.02;8.23;;;;;;;;;;6300272;22;20022;-75
2023/03/22 01:27:37;;;;;;;10.77;7.35;;;;;;;;;;6273014;22;20018;-74
2023/03/22 01:30:04;;;;;;;9.93;7.97;;;;;;;;;;6272750;22;20007;-75
2023/03/22 01:32:31;;;;;;;14.10;9.15;;;;;;;;;;6248187;22;20015;-76
2023/03/22 01:34:57;;;;;;;12.60;8.80;;;;;;;;;;6272563;22;20035;-75
2023/03/22 01:37:26;;;;;;;12.70;9.13;;;;;;;;;;6272752;22;20347;-75
2023/03/22 01:39:53;;;;;;;13.05;8.40;;;;;;;;;;6272881;22;20046;-74
2023/03/22 01:42:21;;;;;;;10.93;7.90;;;;;;;;;;6273104;22;20011;-75
2023/03/22 01:45:06;;;;;;;10.68;7.88;;;;;;;;;;6272547;22;20019;-74
2023/03/22 01:47:33;;;;;;;14.35;7.82;;;;;;;;;;6272466;22;20093;-74
2023/03/22 01:49:59;;;;;;;11.52;8.18;;;;;;;;;;6246518;22;20452;-74
2023/03/22 01:52:25;;;;;;;8.70;7.20;;;;;;;;;;6299911;22;20133;-75
2023/03/22 01:55:05;;;;;;;11.65;7.85;;;;;;;;;;6272832;22;20007;-75
2023/03/22 01:57:40;;;;;;;15.18;8.20;;;;;;;;;;6272897;22;20448;-74
2023/03/22 02:00:14;;;;;;;10.55;8.48;;;;;;;;;;6272929;22;20007;-74
2023/03/22 02:02:44;;;;;;;11.70;8.20;;;;;;;;;;6273240;22;20018;-75
2023/03/22 02:05:25;;;;;;;9.82;7.53;;;;;;;;;;6273034;22;20019;-75
2023/03/22 02:07:54;;;;;;;9.27;7.50;;;;;;;;;;6248142;22;20086;-75
2023/03/22 02:10:22;;;;;;;10.45;7.65;;;;;;;;;;6249808;22;20015;-75
2023/03/22 02:13:05;;;;;;;9.00;6.00;;;;;;;;;;6254429;22;20019;-76
2023/03/22 02:15:48;;;;;;;11.32;7.80;;;;;;;;;;6253033;22;20090;-76
2023/03/22 02:18:53;;;;;;;14.50;7.57;;;;;;;;;;6276833;22;20007;-76
2023/03/22 02:21:29;;;;;;;9.95;8.35;;;;;;;;;;6276486;22;20050;-77
2023/03/22 02:24:10;;;;;;;7.60;6.75;;;;;;;;;;6276493;22;20007;-75
2023/03/22 02:26:49;;;;;;;10.85;8.05;;;;;;;;;;6303509;22;20460;-75
2023/03/22 02:29:16;;;;;;;13.13;7.90;;;;;;;;;;6250556;22;20452;-75
2023/03/22 02:31:55;;;;;;;9.60;7.63;;;;;;;;;;6276259;22;20022;-74
2023/03/22 02:34:40;;;;;;;11.80;7.53;;;;;;;;;;6276430;22;20018;-75
2023/03/22 02:37:26;;;;;;;8.82;6.75;;;;;;;;;;6250806;22;20007;-77
2023/03/22 02:39:58;;;;;;;7.70;6.00;;;;;;;;;;6250802;22;20071;-75
2023/03/22 02:42:41;;;;;;;9.20;8.23;;;;;;;;;;6276395;22;20011;-77
2023/03/22 02:45:15;;;;;;;10.90;8.25;;;;;;;;;;6276203;22;20051;-76
2023/03/22 02:47:48;;;;;;;9.07;6.95;;;;;;;;;;6303410;22;20019;-77
2023/03/22 02:50:14;;;;;;;12.50;7.97;;;;;;;;;;6302818;22;20003;-75
2023/03/22 02:52:40;;;;;;;13.02;9.35;;;;;;;;;;6302886;22;20149;-78
2023/03/22 02:55:26;;;;;;;11.45;8.05;;;;;;;;;;6275820;22;20018;-76
2023/03/22 02:57:56;;;;;;;10.77;7.68;;;;;;;;;;6302805;22;20018;-75
2023/03/22 03:00:22;;;;;;;15.77;8.90;;;;;;;;;;6302983;22;20705;-75
2023/03/22 03:02:49;;;;;;;13.38;9.60;;;;;;;;;;6250320;22;20060;-76
2023/03/22 03:05:16;;;;;;;16.10;8.45;;;;;;;;;;6250157;22;20026;-74
2023/03/22 03:07:46;;;;;;;14.48;8.38;;;;;;;;;;6275074;22;20017;-74
2023/03/22 03:10:12;;;;;;;9.80;7.77;;;;;;;;;;6275351;22;20011;-78
2023/03/22 03:12:41;;;;;;;11.45;8.18;;;;;;;;;;6270528;22;20027;-79
2023/03/22 03:15:12;;;;;;;10.73;7.82;;;;;;;;;;6270261;22;20019;-75
2023/03/22 03:17:46;;;;;;;9.68;7.43;;;;;;;;;;6269385;22;20065;-76
2023/03/22 03:20:23;;;;;;;12.65;8.30;;;;;;;;;;6245857;22;20456;-77
2023/03/22 03:22:52;;;;;;;7.70;7.00;;;;;;;;;;6270167;22;20447;-76
2023/03/22 03:25:24;;;;;;;9.32;7.20;;;;;;;;;;6270187;22;20023;-76
2023/03/22 03:28:02;;;;;;;10.93;7.93;;;;;;;;;;6272849;22;20035;-76
2023/03/22 03:30:30;;;;;;;8.70;7.60;;;;;;;;;;6270141;22;20011;-75
2023/03/22 03:32:58;;;;;;;10.38;8.05;;;;;;;;;;6270896;22;20011;-77
2023/03/22 03:35:28;;;;;;;11.07;8.38;;;;;;;;;;6270980;22;20479;-77
2023/03/22 03:38:00;;;;;;;10.80;8.43;;;;;;;;;;6219380;22;20016;-77
2023/03/22 03:40:30;;;;;;;11.32;8.07;;;;;;;;;;6270859;22;20007;-77
2023/03/22 03:42:57;;;;;;;8.88;8.05;;;;;;;;;;6269729;22;20439;-77
2023/03/22 03:45:22;;;;;;;10.35;6.43;;;;;;;;;;6271126;22;20468;-75
2023/03/22 03:47:55;;;;;;;9.70;7.25;;;;;;;;;;6270048;22;20096;-77
2023/03/22 03:50:22;;;;;;;8.68;7.32;;;;;;;;;;6270344;22;20015;-75
2023/03/22 03:52:48;;;;;;;7.90;6.05;;;;;;;;;;6271388;22;20022;-76
2023/03/22 03:55:14;;;;;;;9.73;7.80;;;;;;;;;;6272001;22;20657;-77
2023/03/22 03:57:40;;;;;;;8.38;6.20;;;;;;;;;;6270193;22;20403;-76
2023/03/22 04:00:07;;;;;;;13.32;7.45;;;;;;;;;;6268938;22;20007;-75
2023/03/22 04:02:59;;;;;;;11.15;7.25;;;;;;;;;;6268557;22;20023;-76
2023/03/22 04:05:40;;;;;;;8.97;7.37;;;;;;;;;;6244969;22;20027;-77
2023/03/22 04:08:06;;;;;;;8.88;7.60;;;;;;;;;;6243700;22;20008;-77
2023/03/22 04:10:32;;;;;;;9.55;7.43;;;;;;;;;;6269294;22;20098;-74
2023/03/22 04:12:59;;;;;;;10.50;7.30;;;;;;;;;;6275400;22;20018;-76
2023/03/22 04:15:25;;;;;;;17.30;9.23;;;;;;;;;;6275445;22;20011;-76
2023/03/22 04:17:55;;;;;;;9.25;6.72;;;;;;;;;;6276180;22;20128;-76
2023/03/22 04:20:25;;;;;;;11.32;7.28;;;;;;;;;;6276296;22;20692;-77
2023/03/22 04:22:51;;;;;;;11.30;6.72;;;;;;;;;;6276016;22;20480;-76
2023/03/22 04:25:20;;;;;;;8.95;6.13;;;;;;;;;;6274439;22;20045;-76
2023/03/22 04:27:59;;;;;;;6.82;5.60;;;;;;;;;;6275126;22;20099;-77
2023/03/22 04:30:26;;;;;;;8.07;4.88;;;;;;;;;;6248014;22;20015;-78
2023/03/22 04:33:05;;;;;;;8.45;7.03;;;;;;;;;;6271212;22;20405;-77
2023/03/22 04:35:55;;;;;;;11.80;6.97;;;;;;;;;;6266938;22;20443;-77
2023/03/22 04:38:24;;;;;;;9.13;7.55;;;;;;;;;;6248484;22;20122;-76
2023/03/22 04:40:51;;;;;;;5.47;4.93;;;;;;;;;;6274366;22;20011;-77
2023/03/22 04:43:22;;;;;;;12.93;7.88;;;;;;;;;;6273222;22;20444;-79
2023/03/22 04:45:56;;;;;;;9.05;7.40;;;;;;;;;;6248321;22;20433;-78
2023/03/22 04:48:28;;;;;;;9.98;6.47;;;;;;;;;;6252136;22;20011;-79
2023/03/22 04:50:57;;;;;;;7.43;6.50;;;;;;;;;;6276360;22;20011;-78
2023/03/22 04:53:26;;;;;;;5.25;4.47;;;;;;;;;;6277770;22;20018;-78
2023/03/22 04:55:56;;;;;;;8.43;6.15;;;;;;;;;;6253416;22;20503;-80
2023/03/22 04:58:24;;;;;;;5.88;5.32;;;;;;;;;;6278286;22;20003;-79
2023/03/22 05:00:51;;;;;;;6.22;5.63;;;;;;;;;;6253333;22;20447;-80
2023/03/22 05:03:21;;;;;;;5.80;5.30;;;;;;;;;;6310467;22;20018;-81
2023/03/22 05:05:52;;;;;;;6.57;4.03;;;;;;;;;;6283548;22;20047;-79
2023/03/22 05:08:19;;;;;;;7.15;5.80;;;;;;;;;;6264652;22;20594;-78
2023/03/22 05:10:48;;;;;;;6.82;5.90;;;;;;;;;;6290774;22;20011;-79
2023/03/22 05:13:14;;;;;;;6.28;5.68;;;;;;;;;;6315792;22;20021;-79
2023/03/22 05:15:44;;;;;;;7.88;5.80;;;;;;;;;;6321269;22;20039;-77
2023/03/22 05:18:13;;;;;;;10.65;5.80;;;;;;;;;;6267933;22;20068;-78
2023/03/22 05:20:40;;;;;;;5.85;5.25;;;;;;;;;;6294792;22;20020;-77
2023/03/22 05:23:13;;;;;;;6.68;5.75;;;;;;;;;;6293883;22;20036;-77
2023/03/22 05:25:43;;;;;;;6.47;5.90;;;;;;;;;;6298846;22;20011;-81
2023/03/22 05:28:13;;;;;;;6.70;6.10;;;;;;;;;;6304046;22;20007;-83
2023/03/22 05:30:52;;;;;;;6.78;6.18;;;;;;;;;;6305080;22;20007;-85
2023/03/22 05:33:34;;;;;;;8.63;6.90;;;;;;;;;;6306822;22;20114;-86
2023/03/22 05:36:01;;;;;;;10.02;7.20;;;;;;;;;;6316255;22;20627;-81
2023/03/22 05:38:31;;;;;;;9.45;7.57;;;;;;;;;;6288486;22;20018;-82
2023/03/22 05:40:59;;;;;;;7.70;6.40;;;;;;;;;;6290158;22;20154;-81
2023/03/22 05:43:29;;;;;;;12.18;10.98;;;;;;;;;;6255805;22;20018;-76
2023/03/22 05:45:55;;;;;;;11.55;10.00;;;;;;;;;;6250940;22;20042;-77
2023/03/22 05:48:36;;;;;;;8.35;7.53;;;;;;;;;;6254568;22;20016;-79
2023/03/22 05:51:12;;;;;;;7.63;7.03;;;;;;;;;;6251592;22;20011;-79
2023/03/22 05:53:38;;;;;;;7.30;6.72;;;;;;;;;;6280687;22;20007;-77
2023/03/22 05:56:11;;;;;;;10.23;8.25;;;;;;;;;;6303637;22;20018;-80
2023/03/22 05:58:40;;;;;;;9.93;8.95;;;;;;;;;;6240045;22;20007;-82
2023/03/22 06:01:15;;;;;;;8.82;8.02;;;;;;;;;;6254440;22;20011;-79
2023/03/22 06:03:44;;;;;;;10.75;9.75;;;;;;;;;;6275185;22;20678;-80
2023/03/22 06:06:18;;;;;;;9.98;8.13;;;;;;;;;;6221254;22;20019;-78
2023/03/22 06:08:53;;;;;;;8.32;7.25;;;;;;;;;;6246368;22;20019;-78
2023/03/22 06:11:20;;;;;;;8.88;8.02;;;;;;;;;;6221492;22;20016;-77
2023/03/22 06:13:46;;;;;;;9.32;8.50;;;;;;;;;;6221438;22;20090;-79
2023/03/22 06:16:13;;;;;;;9.38;8.57;;;;;;;;;;6222094;22;20015;-77
2023/03/22 06:18:43;;;;;;;10.27;9.27;;;;;;;;;;6247791;22;20046;-77
2023/03/22 06:21:11;;;;;;;9.20;8.30;;;;;;;;;;6251853;22;20047;-80
2023/03/22 06:23:37;;;;;;;8.48;7.78;;;;;;;;;;6262981;22;20023;-81
2023/03/22 06:26:08;;;;;;;9.52;8.60;;;;;;;;;;6264907;22;20419;-82
2023/03/22 06:28:35;;;;;;;8.85;7.72;;;;;;;;;;6242402;22;20356;-80
2023/03/22 06:31:06;;;;;;;12.00;10.98;;;;;;;;;;6265095;22;20016;-80
2023/03/22 06:33:40;;;;;;;9.45;8.48;;;;;;;;;;6232079;22;20015;-79
2023/03/22 06:36:19;;;;;;;9.38;8.48;;;;;;;;;;6248197;22;20058;-79
2023/03/22 06:39:03;;;;;;;9.35;8.60;;;;;;;;;;6227730;22;20008;-80
2023/03/22 06:41:30;;;;;;;8.98;8.25;;;;;;;;;;6249958;22;20015;-81
2023/03/22 06:43:56;;;;;;;9.57;8.43;;;;;;;;;;6251834;22;20404;-80
2023/03/22 06:46:37;;;;;;;8.93;8.20;;;;;;;;;;6248375;22;20030;-79
2023/03/22 06:49:10;;;;;;;11.40;10.40;;;;;;;;;;6246983;22;20004;-77
2023/03/22 06:51:37;;;;;;;12.48;11.38;;;;;;;;;;6220276;22;20119;-77
2023/03/22 06:54:03;;;;;;;10.60;8.77;;;;;;;;;;6244592;22;20407;-78
2023/03/22 06:56:30;;;;;;;10.07;9.10;;;;;;;;;;6244726;22;20309;-79
2023/03/22 06:58:57;;;;;;;11.25;10.35;;;;;;;;;;6170485;22;20459;-79
2023/03/22 07:01:24;;;;;;;19.73;16.38;;;;;;;;;;6244181;22;20015;-79
2023/03/22 07:03:50;;;;;;;14.98;13.23;;;;;;;;;;6271764;22;20064;-80
2023/03/22 07:06:20;;;;;;;18.17;14.93;;;;;;;;;;6221853;22;20207;-79
2023/03/22 07:08:48;;;;;;;19.55;17.55;;;;;;;;;;6245440;22;20137;-77
2023/03/22 07:11:18;;;;;;;12.73;11.63;;;;;;;;;;6220983;22;20015;-78
2023/03/22 07:13:49;;;;;;;14.70;13.10;;;;;;;;;;6246865;22;20440;-78
2023/03/22 07:16:19;;;;;;;14.37;13.07;;;;;;;;;;6220626;22;20460;-80
2023/03/22 07:18:55;;;;;;;13.93;12.63;;;;;;;;;;6245692;22;20412;-79
2023/03/22 07:21:23;;;;;;;14.13;12.65;;;;;;;;;;6245799;22;20054;-76
2023/03/22 07:23:54;;;;;;;12.65;11.65;;;;;;;;;;6245751;22;20012;-76
2023/03/22 07:26:25;;;;;;;8.07;7.40;;;;;;;;;;6197260;22;20102;-78
2023/03/22 07:28:53;;;;;;;7.63;6.90;;;;;;;;;;6246358;22;20011;-76
2023/03/22 07:31:25;;;;;;;8.82;8.13;;;;;;;;;;6242169;22;20360;-78
2023/03/22 07:34:06;;;;;;;8.45;7.85;;;;;;;;;;6215817;23;20450;-76
2023/03/22 07:36:40;;;;;;;7.70;7.10;;;;;;;;;;6240612;23;20038;-77
2023/03/22 07:39:09;;;;;;;8.07;7.28;;;;;;;;;;6240149;23;20337;-78
2023/03/22 07:41:39;;;;;;;9.63;8.20;;;;;;;;;;6216071;23;20012;-77
2023/03/22 07:44:29;;;;;;;9.35;8.43;;;;;;;;;;6195061;23;20464;-77
2023/03/22 07:47:15;;;;;;;10.40;9.63;;;;;;;;;;6195698;22;20066;-77
2023/03/22 07:49:46;;;;;;;10.75;9.85;;;;;;;;;;6240758;23;20016;-77
2023/03/22 07:52:16;;;;;;;12.93;11.02;;;;;;;;;;6242272;22;20019;-79
2023/03/22 07:54:42;;;;;;;12.07;11.07;;;;;;;;;;6239810;23;20019;-76
2023/03/22 07:57:08;;;;;;;11.50;8.68;;;;;;;;;;6240025;23;20487;-77
2023/03/22 07:59:40;;;;;;;10.00;6.80;;;;;;;;;;6240375;23;20019;-77
2023/03/22 08:02:08;;;;;;;9.48;8.45;;;;;;;;;;6239848;23;20012;-76
2023/03/22 08:04:40;;;;;;;8.75;7.95;;;;;;;;;;6240052;23;20036;-75
2023/03/22 08:07:32;;;;;;;6.93;6.40;;;;;;;;;;6234150;23;20745;-75
2023/03/22 08:09:58;;;;;;;5.53;5.10;;;;;;;;;;6239935;23;20012;-76
2023/03/22 08:12:24;;;;;;;5.57;5.07;;;;;;;;;;6239078;23;20531;-75
2023/03/22 08:14:58;;;;;;;2.30;2.20;;;;;;;;;;6240057;23;20016;-76
2023/03/22 08:17:26;;;;;;;4.45;4.13;;;;;;;;;;6240285;23;20016;-76
2023/03/22 08:19:53;;;;;;;4.32;3.92;;;;;;;;;;6239999;23;20070;-76
2023/03/22 08:22:24;;;;;;;3.22;3.03;;;;;;;;;;6240099;23;20039;-76
2023/03/22 08:25:09;;;;;;;4.00;3.80;;;;;;;;;;6239468;23;20058;-76
2023/03/22 08:27:37;;;;;;;4.30;4.00;;;;;;;;;;6239743;23;20455;-76
2023/03/22 08:30:04;;;;;;;4.30;4.00;;;;;;;;;;6213916;23;20011;-76
2023/03/22 08:32:31;;;;;;;4.38;4.07;;;;;;;;;;6240467;23;20309;-77
2023/03/22 08:34:57;;;;;;;4.50;4.10;;;;;;;;;;6240169;23;20087;-74
2023/03/22 08:37:23;;;;;;;4.80;4.50;;;;;;;;;;6239320;23;20038;-75
2023/03/22 08:39:50;;;;;;;4.90;4.60;;;;;;;;;;6214318;23;20028;-75
2023/03/22 08:42:23;;;;;;;7.90;4.60;;;;;;;;;;6215622;23;20073;-76
2023/03/22 08:44:51;;;;;;;7.88;4.35;;;;;;;;;;6214663;23;20040;-75
2023/03/22 08:47:19;;;;;;;4.80;4.50;;;;;;;;;;6239609;23;20024;-76
2023/03/22 08:49:50;;;;;;;4.93;4.35;;;;;;;;;;6239654;23;20008;-75
2023/03/22 08:52:24;;;;;;;4.82;4.53;;;;;;;;;;6240044;23;20016;-75
2023/03/22 08:54:52;;;;;;;5.50;5.00;;;;;;;;;;6241863;22;20008;-76
2023/03/22 08:57:50;;;;;;;8.77;4.85;;;;;;;;;;6238447;23;20023;-76
2023/03/22 09:00:29;;;;;;;5.05;4.75;;;;;;;;;;6239358;23;20019;-75
2023/03/22 09:03:04;;;;;;;5.32;4.97;;;;;;;;;;6238831;23;20012;-75
2023/03/22 09:05:30;;;;;;;6.18;5.68;;;;;;;;;;6239121;23;20023;-76
2023/03/22 09:07:56;;;;;;;5.70;5.30;;;;;;;;;;6238661;23;20016;-75
2023/03/22 09:10:32;;;;;;;5.63;5.22;;;;;;;;;;6239341;23;20014;-76
2023/03/22 09:12:58;;;;;;;5.28;4.93;;;;;;;;;;6238760;23;20077;-75
2023/03/22 09:15:24;;;;;;;5.47;4.97;;;;;;;;;;6188666;23;20008;-74
2023/03/22 09:18:07;;;;;;;5.40;5.10;;;;;;;;;;6238696;23;20594;-75
2023/03/22 09:20:33;;;;;;;5.75;5.35;;;;;;;;;;6239027;23;20062;-74
2023/03/22 09:23:00;;;;;;;5.15;4.75;;;;;;;;;;6238351;23;20596;-74
2023/03/22 09:25:27;;;;;;;5.68;5.28;;;;;;;;;;6240356;22;20123;-73
2023/03/22 09:27:53;;;;;;;8.18;6.07;;;;;;;;;;6238225;23;20016;-74
2023/03/22 09:30:19;;;;;;;6.82;6.35;;;;;;;;;;6213355;23;20518;-75
2023/03/22 09:32:45;;;;;;;5.65;5.25;;;;;;;;;;6238689;23;20042;-76
2023/03/22 09:35:14;;;;;;;5.93;5.28;;;;;;;;;;6235691;22;20012;-75
2023/03/22 09:38:03;;;;;;;6.10;5.70;;;;;;;;;;6237987;23;20066;-75
2023/03/22 09:40:30;;;;;;;5.53;5.03;;;;;;;;;;6264595;22;20016;-76
2023/03/22 09:42:57;;;;;;;3.90;3.70;;;;;;;;;;6212851;23;20420;-75
2023/03/22 09:45:36;;;;;;;3.50;3.30;;;;;;;;;;6238623;23;20043;-75
2023/03/22 09:48:08;;;;;;;3.72;3.47;;;;;;;;;;6238600;23;20012;-76
2023/03/22 09:50:34;;;;;;;4.10;3.80;;;;;;;;;;6214015;23;20063;-77
2023/03/22 09:53:00;;;;;;;3.65;3.45;;;;;;;;;;6238485;23;20587;-76
2023/03/22 09:55:36;;;;;;;3.58;3.38;;;;;;;;;;6240380;23;20016;-76
2023/03/22 09:58:06;;;;;;;3.97;3.78;;;;;;;;;;6238692;23;20125;-77
2023/03/22 10:00:37;;;;;;;3.60;3.33;;;;;;;;;;6240628;22;20119;-78
2023/03/22 10:03:07;;;;;;;5.45;3.22;;;;;;;;;;6248943;22;20011;-77
2023/03/22 10:05:33;;;;;;;3.90;2.70;;;;;;;;;;6223296;23;20016;-78
2023/03/22 10:08:38;;;;;;;3.40;3.20;;;;;;;;;;6252034;23;20043;-79
2023/03/22 10:11:06;;;;;;;3.40;3.20;;;;;;;;;;6180971;23;20021;-78
2023/03/22 10:13:39;;;;;;;2.00;1.90;;;;;;;;;;6152825;23;20013;-77
2023/03/22 10:16:07;;;;;;;3.05;2.85;;;;;;;;;;6196260;22;20012;-78
2023/03/22 10:18:34;;;;;;;3.13;2.92;;;;;;;;;;6238948;23;20038;-78
2023/03/22 10:21:00;;;;;;;3.42;2.63;;;;;;;;;;6238999;22;20012;-77
2023/03/22 10:23:28;;;;;;;3.38;3.17;;;;;;;;;;6240188;22;20087;-77
2023/03/22 10:25:54;;;;;;;2.83;2.63;;;;;;;;;;6238255;23;20020;-78
2023/03/22 10:28:21;;;;;;;3.80;3.50;;;;;;;;;;6240404;22;20019;-77
2023/03/22 10:30:52;;;;;;;3.80;3.50;;;;;;;;;;6238806;22;20050;-78
2023/03/22 10:33:36;;;;;;;3.75;3.35;;;;;;;;;;6237949;23;20019;-77
2023/03/22 10:36:03;;;;;;;3.67;3.35;;;;;;;;;;6240829;23;20071;-77
2023/03/22 10:38:29;;;;;;;4.10;3.80;;;;;;;;;;6241329;22;20090;-77
2023/03/22 10:40:55;;;;;;;4.20;3.85;;;;;;;;;;6242979;22;20398;-75
2023/03/22 10:43:23;;;;;;;4.47;4.15;;;;;;;;;;6242276;22;20035;-76
2023/03/22 10:45:49;;;;;;;4.07;3.80;;;;;;;;;;6189287;23;20020;-75
2023/03/22 10:48:21;;;;;;;4.18;3.88;;;;;;;;;;6239380;23;20004;-75
2023/03/22 10:50:47;;;;;;;6.57;4.07;;;;;;;;;;6240153;23;20023;-76
2023/03/22 10:53:21;;;;;;;4.25;3.95;;;;;;;;;;6240236;23;20095;-76
2023/03/22 10:55:47;;;;;;;3.50;3.30;;;;;;;;;;6215073;23;20095;-76
2023/03/22 10:58:14;;;;;;;3.33;3.10;;;;;;;;;;6241615;22;20039;-74
2023/03/22 11:00:45;;;;;;;3.80;3.50;;;;;;;;;;6240306;22;20016;-76
2023/03/22 11:03:22;;;;;;;4.03;3.72;;;;;;;;;;6239999;23;20008;-75
2023/03/22 11:05:56;;;;;;;4.30;4.00;;;;;;;;;;6214255;23;20174;-79
2023/03/22 11:08:22;;;;;;;4.60;4.20;;;;;;;;;;6239933;23;20365;-76
2023/03/22 11:10:51;;;;;;;3.97;3.67;;;;;;;;;;6240068;22;20011;-75
2023/03/22 11:13:23;;;;;;;4.20;3.80;;;;;;;;;;6192743;23;20008;-75
2023/03/22 11:15:57;;;;;;;4.05;3.75;;;;;;;;;;6239747;23;20471;-77
2023/03/22 11:18:25;;;;;;;6.15;3.97;;;;;;;;;;6241265;22;20082;-76
2023/03/22 11:20:53;;;;;;;4.40;4.10;;;;;;;;;;6241417;23;20012;-76
2023/03/22 11:23:19;;;;;;;3.65;3.45;;;;;;;;;;6239923;23;20008;-77
2023/03/22 11:25:45;;;;;;;4.85;4.22;;;;;;;;;;6241143;22;20031;-75
2023/03/22 11:28:22;;;;;;;3.72;3.42;;;;;;;;;;6214489;23;20015;-76
2023/03/22 11:31:01;;;;;;;3.75;3.50;;;;;;;;;;6239840;23;20088;-76
2023/03/22 11:33:28;;;;;;;3.42;3.22;;;;;;;;;;6240720;22;20058;-76
2023/03/22 11:35:55;;;;;;;2.55;2.45;;;;;;;;;;6240992;23;20008;-75
2023/03/22 11:38:28;;;;;;;2.78;2.65;;;;;;;;;;6241251;22;20091;-76
2023/03/22 11:40:57;;;;;;;2.80;2.60;;;;;;;;;;6241026;23;20065;-77
2023/03/22 11:43:37;;;;;;;2.87;2.67;;;;;;;;;;6241591;22;20103;-77
2023/03/22 11:46:07;;;;;;;2.70;2.60;;;;;;;;;;6213723;23;20461;-75
2023/03/22 11:48:33;;;;;;;4.03;1.98;;;;;;;;;;6240351;22;20074;-77
2023/03/22 11:51:04;;;;;;;1.65;1.58;;;;;;;;;;6241172;22;20016;-76
2023/03/22 11:53:31;;;;;;;6.47;2.35;;;;;;;;;;6239842;23;20012;-75
2023/03/22 11:55:57;;;;;;;2.00;1.90;;;;;;;;;;6239237;23;20101;-75
2023/03/22 11:58:28;;;;;;;3.65;1.40;;;;;;;;;;6239421;23;20007;-74
2023/03/22 12:00:55;;;;;;;1.33;1.33;;;;;;;;;;6239544;23;20016;-76
2023/03/22 12:03:23;;;;;;;2.15;2.05;;;;;;;;;;6239876;23;20012;-79
2023/03/22 12:05:49;;;;;;;1.52;1.52;;;;;;;;;;6240279;23;20043;-75
2023/03/22 12:08:28;;;;;;;2.10;2.00;;;;;;;;;;6214629;23;20012;-75
2023/03/22 12:11:05;;;;;;;2.13;2.03;;;;;;;;;;6238821;23;20058;-75
2023/03/22 12:13:44;;;;;;;2.60;2.40;;;;;;;;;;6240098;23;20090;-75
2023/03/22 12:16:11;;;;;;;2.63;2.42;;;;;;;;;;6239508;23;20019;-75
2023/03/22 12:18:40;;;;;;;2.67;2.20;;;;;;;;;;6189963;23;20155;-76
2023/03/22 12:21:07;;;;;;;2.30;2.10;;;;;;;;;;6239695;23;20095;-75
2023/03/22 12:23:36;;;;;;;2.05;1.73;;;;;;;;;;6214450;23;20090;-74
2023/03/22 12:26:11;;;;;;;2.58;2.40;;;;;;;;;;6241100;23;20020;-75
2023/03/22 12:28:55;;;;;;;2.65;2.45;;;;;;;;;;6241148;22;20012;-75
2023/03/22 12:31:23;;;;;;;2.83;2.65;;;;;;;;;;6240004;22;20189;-78
2023/03/22 12:33:50;;;;;;;2.60;2.50;;;;;;;;;;6214227;23;20023;-79
2023/03/22 12:36:21;;;;;;;2.60;2.45;;;;;;;;;;6247396;22;20075;-79
2023/03/22 12:38:49;;;;;;;3.63;2.30;;;;;;;;;;6218240;23;20111;-78
2023/03/22 12:41:16;;;;;;;2.83;2.40;;;;;;;;;;6241881;23;20066;-81
2023/03/22 12:43:48;;;;;;;2.83;2.63;;;;;;;;;;6243141;23;20475;-76
2023/03/22 12:46:34;;;;;;;2.40;2.22;;;;;;;;;;6240174;23;20473;-76
2023/03/22 12:49:11;;;;;;;2.72;2.55;;;;;;;;;;6230925;23;20111;-77
2023/03/22 12:51:37;;;;;;;2.70;2.58;;;;;;;;;;6244188;22;20020;-76
2023/03/22 12:54:03;;;;;;;3.00;2.70;;;;;;;;;;6241636;23;20090;-75
2023/03/22 12:56:32;;;;;;;3.35;2.72;;;;;;;;;;6240049;23;20158;-79
2023/03/22 12:59:03;;;;;;;2.65;2.55;;;;;;;;;;6241030;22;20012;-76
2023/03/22 13:01:32;;;;;;;3.65;2.78;;;;;;;;;;6239903;23;20023;-76
2023/03/22 13:03:59;;;;;;;2.60;2.50;;;;;;;;;;6241672;22;20038;-76
2023/03/22 13:06:33;;;;;;;2.40;2.30;;;;;;;;;;6241725;22;20020;-76
2023/03/22 13:09:08;;;;;;;2.70;2.60;;;;;;;;;;6241667;22;20008;-76
2023/03/22 13:11:35;;;;;;;2.60;2.50;;;;;;;;;;6214630;23;20469;-76
2023/03/22 13:14:01;;;;;;;2.72;2.55;;;;;;;;;;6240617;22;20012;-77
2023/03/22 13:16:46;;;;;;;4.38;2.53;;;;;;;;;;6241879;22;20020;-77
2023/03/22 13:19:16;;;;;;;3.75;2.83;;;;;;;;;;6241222;22;20449;-77
2023/03/22 13:21:42;;;;;;;3.28;3.03;;;;;;;;;;6241818;22;20019;-78
2023/03/22 13:24:08;;;;;;;3.25;3.03;;;;;;;;;;6239558;23;20068;-77
2023/03/22 13:26:37;;;;;;;3.65;3.17;;;;;;;;;;6242107;22;20023;-78
2023/03/22 13:29:10;;;;;;;3.35;3.00;;;;;;;;;;6239150;23;20010;-78
2023/03/22 13:31:42;;;;;;;3.10;2.80;;;;;;;;;;6245485;22;20114;-78
2023/03/22 13:34:12;;;;;;;4.47;3.83;;;;;;;;;;6244574;22;20015;-77
2023/03/22 13:36:38;;;;;;;5.70;5.03;;;;;;;;;;6244787;22;20082;-77
2023/03/22 13:39:07;;;;;;;3.35;2.72;;;;;;;;;;6271594;22;20388;-77
2023/03/22 13:41:33;;;;;;;3.50;2.72;;;;;;;;;;6244995;22;20008;-77
2023/03/22 13:44:18;;;;;;;2.70;2.50;;;;;;;;;;6271384;22;20109;-77
2023/03/22 13:46:48;;;;;;;2.60;2.40;;;;;;;;;;6271755;22;20491;-77
2023/03/22 13:49:16;;;;;;;3.85;3.55;;;;;;;;;;6272150;22;20078;-75
2023/03/22 13:51:42;;;;;;;2.65;2.45;;;;;;;;;;6244820;22;20363;-76
2023/03/22 13:54:12;;;;;;;3.50;2.17;;;;;;;;;;6271424;22;20448;-75
2023/03/22 13:56:41;;;;;;;2.42;2.28;;;;;;;;;;6271467;22;20558;-76
2023/03/22 13:59:32;;;;;;;2.30;2.20;;;;;;;;;;6243428;22;20098;-76
2023/03/22 14:01:58;;;;;;;2.70;2.50;;;;;;;;;;6271252;22;20019;-76
2023/03/22 14:04:51;;;;;;;3.95;2.55;;;;;;;;;;6271602;22;20428;-75
2023/03/22 14:07:25;;;;;;;2.72;2.53;;;;;;;;;;6267581;22;20048;-77
2023/03/22 14:10:01;;;;;;;2.92;2.60;;;;;;;;;;6245052;22;20023;-77
2023/03/22 14:12:44;;;;;;;2.72;2.53;;;;;;;;;;6273209;22;20033;-77
2023/03/22 14:15:10;;;;;;;3.45;2.78;;;;;;;;;;6273575;22;20013;-79
2023/03/22 14:17:38;;;;;;;2.67;2.47;;;;;;;;;;6246822;22;20038;-78
2023/03/22 14:20:09;;;;;;;3.30;2.50;;;;;;;;;;6246042;22;20487;-78
2023/03/22 14:22:39;;;;;;;2.63;2.42;;;;;;;;;;6222157;22;20071;-78
2023/03/22 14:25:06;;;;;;;2.50;2.40;;;;;;;;;;6196310;22;20027;-78
2023/03/22 14:27:32;;;;;;;2.90;2.70;;;;;;;;;;6247307;22;20107;-76
2023/03/22 14:29:59;;;;;;;2.85;2.65;;;;;;;;;;6248744;22;20081;-78
2023/03/22 14:32:29;;;;;;;2.47;2.28;;;;;;;;;;6259388;22;20024;-77
2023/03/22 14:35:05;;;;;;;3.05;2.85;;;;;;;;;;6219251;23;20008;-78
2023/03/22 14:37:31;;;;;;;3.67;3.47;;;;;;;;;;6244376;23;20478;-81
2023/03/22 14:39:58;;;;;;;6.45;4.22;;;;;;;;;;6253517;23;20020;-79
2023/03/22 14:42:27;;;;;;;4.30;3.90;;;;;;;;;;6254252;23;20039;-79
2023/03/22 14:44:56;;;;;;;4.47;4.07;;;;;;;;;;6254294;22;20078;-77
2023/03/22 14:47:32;;;;;;;4.60;4.28;;;;;;;;;;6242153;22;20110;-77
2023/03/22 14:50:08;;;;;;;4.60;4.20;;;;;;;;;;6241970;23;20016;-78
2023/03/22 14:52:34;;;;;;;4.63;4.22;;;;;;;;;;6242012;23;20461;-78
2023/03/22 14:55:02;;;;;;;5.28;4.80;;;;;;;;;;6242937;22;20107;-76
2023/03/22 14:57:32;;;;;;;6.30;5.80;;;;;;;;;;6215822;23;20016;-76
2023/03/22 14:59:58;;;;;;;5.95;3.95;;;;;;;;;;6216646;23;20008;-76